sensor_id;sensor_type;location;lat;lon;timestamp;temperature;humidity
34360;DHT22;20624;55.870;26.506;2022-09-24T00:01:47;6.50;99.90
34360;DHT22;20624;55.870;26.506;2022-09-24T00:04:14;6.80;99.90
34360;DHT22;20624;55.870;26.506;2022-09-24T00:06:44;6.40;99.90
34360;DHT22;20624;55.870;26.506;2022-09-24T00:09:14;6.50;99.90
34360;DHT22;20624;55.870;26.506;2022-09-24T00:11:43;6.50;99.90
34360;DHT22;20624;55.870;26.506;2022-09-24T00:14:12;6.50;99.90
34360;DHT22;20624;55.870;26.506;2022-09-24T00:19:07;6.50;99.90
34360;DHT22;20624;55.870;26.506;2022-09-24T00:21:36;6.50;99.90
34360;DHT22;20624;55.870;26.506;2022-09-24T00:24:09;6.50;99.90
34360;DHT22;20624;55.870;26.506;2022-09-24T00:29:27;6.50;99.90
34360;DHT22;20624;55.870;26.506;2022-09-24T00:31:55;6.50;99.90
34360;DHT22;20624;55.870;26.506;2022-09-24T00:36:51;6.50;99.90
34360;DHT22;20624;55.870;26.506;2022-09-24T00:39:19;6.50;99.90
34360;DHT22;20624;55.870;26.506;2022-09-24T00:41:47;6.30;99.90
34360;DHT22;20624;55.870;26.506;2022-09-24T00:49:39;6.50;99.90
34360;DHT22;20624;55.870;26.506;2022-09-24T00:52:06;6.50;99.90
34360;DHT22;20624;55.870;26.506;2022-09-24T00:54:34;6.60;99.90
34360;DHT22;20624;55.870;26.506;2022-09-24T00:57:03;6.70;99.90
34360;DHT22;20624;55.870;26.506;2022-09-24T00:59:31;6.70;99.90
34360;DHT22;20624;55.870;26.506;2022-09-24T01:04:29;6.80;99.90
34360;DHT22;20624;55.870;26.506;2022-09-24T01:06:56;6.70;99.90
34360;DHT22;20624;55.870;26.506;2022-09-24T01:09:25;6.70;99.90
34360;DHT22;20624;55.870;26.506;2022-09-24T01:15:32;6.70;99.90
34360;DHT22;20624;55.870;26.506;2022-09-24T01:18:04;6.70;99.90
34360;DHT22;20624;55.870;26.506;2022-09-24T01:32:03;6.70;99.90
34360;DHT22;20624;55.870;26.506;2022-09-24T01:34:54;6.60;99.90
34360;DHT22;20624;55.870;26.506;2022-09-24T01:37:26;6.60;99.90
34360;DHT22;20624;55.870;26.506;2022-09-24T01:39:55;6.60;99.90
34360;DHT22;20624;55.870;26.506;2022-09-24T01:42:26;6.60;99.90
34360;DHT22;20624;55.870;26.506;2022-09-24T01:44:55;6.60;99.90
34360;DHT22;20624;55.870;26.506;2022-09-24T01:47:36;6.60;99.90
34360;DHT22;20624;55.870;26.506;2022-09-24T01:50:07;6.50;99.90
34360;DHT22;20624;55.870;26.506;2022-09-24T01:53:04;6.50;99.90
34360;DHT22;20624;55.870;26.506;2022-09-24T01:55:36;6.50;99.90
34360;DHT22;20624;55.870;26.506;2022-09-24T01:58:09;6.50;99.90
34360;DHT22;20624;55.870;26.506;2022-09-24T02:00:39;6.50;99.90
34360;DHT22;20624;55.870;26.506;2022-09-24T02:03:13;6.60;99.90
34360;DHT22;20624;55.870;26.506;2022-09-24T02:08:25;6.60;99.90
34360;DHT22;20624;55.870;26.506;2022-09-24T02:16:21;6.70;99.90
34360;DHT22;20624;55.870;26.506;2022-09-24T02:18:52;6.70;99.90
34360;DHT22;20624;55.870;26.506;2022-09-24T02:21:21;6.70;99.90
34360;DHT22;20624;55.870;26.506;2022-09-24T02:23:57;6.70;99.90
34360;DHT22;20624;55.870;26.506;2022-09-24T02:26:26;6.60;99.90
34360;DHT22;20624;55.870;26.506;2022-09-24T02:31:44;6.80;99.90
34360;DHT22;20624;55.870;26.506;2022-09-24T02:34:20;6.90;99.90
34360;DHT22;20624;55.870;26.506;2022-09-24T02:36:52;6.90;99.90
34360;DHT22;20624;55.870;26.506;2022-09-24T02:39:20;6.90;99.90
34360;DHT22;20624;55.870;26.506;2022-09-24T02:41:49;6.70;99.90
34360;DHT22;20624;55.870;26.506;2022-09-24T02:44:18;6.90;99.90
34360;DHT22;20624;55.870;26.506;2022-09-24T02:46:46;6.90;99.90
34360;DHT22;20624;55.870;26.506;2022-09-24T02:49:15;6.90;99.90
34360;DHT22;20624;55.870;26.506;2022-09-24T02:54:10;6.90;99.90
34360;DHT22;20624;55.870;26.506;2022-09-24T02:56:38;6.90;99.90
34360;DHT22;20624;55.870;26.506;2022-09-24T02:59:07;6.90;99.90
34360;DHT22;20624;55.870;26.506;2022-09-24T03:01:35;6.80;99.90
34360;DHT22;20624;55.870;26.506;2022-09-24T03:04:02;5.90;99.90
34360;DHT22;20624;55.870;26.506;2022-09-24T03:06:30;6.80;99.90
34360;DHT22;20624;55.870;26.506;2022-09-24T03:08:57;6.80;99.90
34360;DHT22;20624;55.870;26.506;2022-09-24T03:13:53;6.70;99.90
34360;DHT22;20624;55.870;26.506;2022-09-24T03:16:21;6.60;99.90
34360;DHT22;20624;55.870;26.506;2022-09-24T03:18:48;6.60;99.90
34360;DHT22;20624;55.870;26.506;2022-09-24T03:21:19;6.50;99.90
34360;DHT22;20624;55.870;26.506;2022-09-24T03:23:46;6.60;99.90
34360;DHT22;20624;55.870;26.506;2022-09-24T03:28:41;6.50;99.90
34360;DHT22;20624;55.870;26.506;2022-09-24T03:31:09;6.50;99.90
34360;DHT22;20624;55.870;26.506;2022-09-24T03:33:38;6.50;99.90
34360;DHT22;20624;55.870;26.506;2022-09-24T03:36:09;6.50;99.90
34360;DHT22;20624;55.870;26.506;2022-09-24T03:38:38;6.40;99.90
34360;DHT22;20624;55.870;26.506;2022-09-24T03:41:06;6.40;99.90
34360;DHT22;20624;55.870;26.506;2022-09-24T03:43:35;6.40;99.90
34360;DHT22;20624;55.870;26.506;2022-09-24T03:46:04;6.30;99.90
34360;DHT22;20624;55.870;26.506;2022-09-24T03:48:35;6.30;99.90
34360;DHT22;20624;55.870;26.506;2022-09-24T03:51:10;6.70;99.90
34360;DHT22;20624;55.870;26.506;2022-09-24T03:53:39;6.30;99.90
34360;DHT22;20624;55.870;26.506;2022-09-24T03:56:07;6.20;99.90
34360;DHT22;20624;55.870;26.506;2022-09-24T03:58:35;6.20;99.90
34360;DHT22;20624;55.870;26.506;2022-09-24T04:01:08;6.20;99.90
34360;DHT22;20624;55.870;26.506;2022-09-24T04:06:06;6.20;99.90
34360;DHT22;20624;55.870;26.506;2022-09-24T04:08:33;6.20;99.90
34360;DHT22;20624;55.870;26.506;2022-09-24T04:11:01;6.20;99.90
34360;DHT22;20624;55.870;26.506;2022-09-24T04:13:29;6.20;99.90
34360;DHT22;20624;55.870;26.506;2022-09-24T04:16:01;6.10;99.90
34360;DHT22;20624;55.870;26.506;2022-09-24T04:18:29;6.10;99.90
34360;DHT22;20624;55.870;26.506;2022-09-24T04:21:02;4.20;99.90
34360;DHT22;20624;55.870;26.506;2022-09-24T04:23:30;6.10;99.90
34360;DHT22;20624;55.870;26.506;2022-09-24T04:25:57;5.80;99.90
34360;DHT22;20624;55.870;26.506;2022-09-24T04:28:29;6.10;99.90
34360;DHT22;20624;55.870;26.506;2022-09-24T04:30:57;6.10;99.90
34360;DHT22;20624;55.870;26.506;2022-09-24T04:33:27;6.10;99.90
34360;DHT22;20624;55.870;26.506;2022-09-24T04:35:54;6.10;99.90
34360;DHT22;20624;55.870;26.506;2022-09-24T04:38:22;6.00;99.90
34360;DHT22;20624;55.870;26.506;2022-09-24T04:40:49;6.00;99.90
34360;DHT22;20624;55.870;26.506;2022-09-24T04:43:17;6.00;99.90
34360;DHT22;20624;55.870;26.506;2022-09-24T04:45:45;6.00;99.90
34360;DHT22;20624;55.870;26.506;2022-09-24T04:50:40;6.10;99.90
34360;DHT22;20624;55.870;26.506;2022-09-24T04:53:12;5.60;99.90
34360;DHT22;20624;55.870;26.506;2022-09-24T04:55:40;5.90;99.90
34360;DHT22;20624;55.870;26.506;2022-09-24T04:58:09;6.20;99.90
34360;DHT22;20624;55.870;26.506;2022-09-24T05:00:37;6.20;99.90
34360;DHT22;20624;55.870;26.506;2022-09-24T05:03:06;6.20;99.90
34360;DHT22;20624;55.870;26.506;2022-09-24T05:05:34;6.10;99.90
34360;DHT22;20624;55.870;26.506;2022-09-24T05:08:02;6.20;99.90
34360;DHT22;20624;55.870;26.506;2022-09-24T05:12:59;6.30;99.90
34360;DHT22;20624;55.870;26.506;2022-09-24T05:15:27;6.30;99.90
34360;DHT22;20624;55.870;26.506;2022-09-24T05:17:55;6.30;99.90
34360;DHT22;20624;55.870;26.506;2022-09-24T05:20:23;6.30;99.90
34360;DHT22;20624;55.870;26.506;2022-09-24T05:22:51;6.30;99.90
34360;DHT22;20624;55.870;26.506;2022-09-24T05:25:19;6.30;99.90
34360;DHT22;20624;55.870;26.506;2022-09-24T05:27:53;6.30;99.90
34360;DHT22;20624;55.870;26.506;2022-09-24T05:30:22;6.30;99.90
34360;DHT22;20624;55.870;26.506;2022-09-24T05:32:53;6.40;99.90
34360;DHT22;20624;55.870;26.506;2022-09-24T05:35:22;6.40;99.90
34360;DHT22;20624;55.870;26.506;2022-09-24T05:37:50;6.50;99.90
34360;DHT22;20624;55.870;26.506;2022-09-24T05:40:21;6.60;99.90
34360;DHT22;20624;55.870;26.506;2022-09-24T05:43:07;6.60;99.90
34360;DHT22;20624;55.870;26.506;2022-09-24T05:45:35;6.70;99.90
34360;DHT22;20624;55.870;26.506;2022-09-24T05:50:31;6.90;99.90
34360;DHT22;20624;55.870;26.506;2022-09-24T05:53:01;7.00;99.90
34360;DHT22;20624;55.870;26.506;2022-09-24T05:58:03;7.10;99.90
34360;DHT22;20624;55.870;26.506;2022-09-24T06:00:30;7.10;99.90
34360;DHT22;20624;55.870;26.506;2022-09-24T06:03:03;7.30;99.90
34360;DHT22;20624;55.870;26.506;2022-09-24T06:05:32;7.30;99.90
34360;DHT22;20624;55.870;26.506;2022-09-24T06:08:04;8.50;99.90
34360;DHT22;20624;55.870;26.506;2022-09-24T06:10:35;7.50;99.90
34360;DHT22;20624;55.870;26.506;2022-09-24T06:13:02;7.50;99.90
34360;DHT22;20624;55.870;26.506;2022-09-24T06:15:30;7.60;99.90
34360;DHT22;20624;55.870;26.506;2022-09-24T06:22:54;7.70;99.90
34360;DHT22;20624;55.870;26.506;2022-09-24T06:25:24;7.80;99.90
34360;DHT22;20624;55.870;26.506;2022-09-24T06:27:59;7.80;99.90
34360;DHT22;20624;55.870;26.506;2022-09-24T06:30:29;7.80;99.90
34360;DHT22;20624;55.870;26.506;2022-09-24T06:33:05;7.90;99.90
34360;DHT22;20624;55.870;26.506;2022-09-24T06:35:40;8.00;99.90
34360;DHT22;20624;55.870;26.506;2022-09-24T06:38:11;8.10;99.90
34360;DHT22;20624;55.870;26.506;2022-09-24T06:40:39;7.80;99.90
34360;DHT22;20624;55.870;26.506;2022-09-24T06:43:08;9.20;99.90
34360;DHT22;20624;55.870;26.506;2022-09-24T06:45:38;8.30;99.90
34360;DHT22;20624;55.870;26.506;2022-09-24T06:48:05;8.30;99.90
34360;DHT22;20624;55.870;26.506;2022-09-24T06:50:34;8.20;99.90
34360;DHT22;20624;55.870;26.506;2022-09-24T06:53:04;8.60;99.90
34360;DHT22;20624;55.870;26.506;2022-09-24T06:55:33;8.70;99.90
34360;DHT22;20624;55.870;26.506;2022-09-24T06:58:12;8.70;99.90
34360;DHT22;20624;55.870;26.506;2022-09-24T07:00:41;8.80;99.90
34360;DHT22;20624;55.870;26.506;2022-09-24T07:03:15;8.90;99.90
34360;DHT22;20624;55.870;26.506;2022-09-24T07:05:43;8.90;99.90
34360;DHT22;20624;55.870;26.506;2022-09-24T07:08:11;9.30;99.90
34360;DHT22;20624;55.870;26.506;2022-09-24T07:10:43;9.10;99.90
34360;DHT22;20624;55.870;26.506;2022-09-24T07:13:15;9.10;99.90
34360;DHT22;20624;55.870;26.506;2022-09-24T07:15:43;9.20;99.90
34360;DHT22;20624;55.870;26.506;2022-09-24T07:18:12;9.30;99.90
34360;DHT22;20624;55.870;26.506;2022-09-24T07:20:39;9.50;99.90
34360;DHT22;20624;55.870;26.506;2022-09-24T07:23:09;9.30;99.90
34360;DHT22;20624;55.870;26.506;2022-09-24T07:25:37;9.50;99.90
34360;DHT22;20624;55.870;26.506;2022-09-24T07:28:07;9.50;99.90
34360;DHT22;20624;55.870;26.506;2022-09-24T07:30:37;9.40;99.90
34360;DHT22;20624;55.870;26.506;2022-09-24T07:33:06;9.40;99.90
34360;DHT22;20624;55.870;26.506;2022-09-24T07:35:37;9.60;99.90
34360;DHT22;20624;55.870;26.506;2022-09-24T07:38:10;9.60;99.90
34360;DHT22;20624;55.870;26.506;2022-09-24T07:40:38;9.70;99.90
34360;DHT22;20624;55.870;26.506;2022-09-24T07:45:40;10.10;99.90
34360;DHT22;20624;55.870;26.506;2022-09-24T07:48:09;10.20;99.90
34360;DHT22;20624;55.870;26.506;2022-09-24T07:50:41;10.40;99.90
34360;DHT22;20624;55.870;26.506;2022-09-24T07:53:11;10.50;99.90
34360;DHT22;20624;55.870;26.506;2022-09-24T07:55:40;10.40;99.90
34360;DHT22;20624;55.870;26.506;2022-09-24T07:58:12;10.40;99.90
34360;DHT22;20624;55.870;26.506;2022-09-24T08:00:40;10.40;99.90
34360;DHT22;20624;55.870;26.506;2022-09-24T08:03:08;10.40;99.90
34360;DHT22;20624;55.870;26.506;2022-09-24T08:05:42;10.40;99.90
34360;DHT22;20624;55.870;26.506;2022-09-24T08:08:11;10.30;99.90
34360;DHT22;20624;55.870;26.506;2022-09-24T08:10:39;10.20;99.90
34360;DHT22;20624;55.870;26.506;2022-09-24T08:13:08;10.30;99.90
34360;DHT22;20624;55.870;26.506;2022-09-24T08:15:35;10.30;99.90
34360;DHT22;20624;55.870;26.506;2022-09-24T08:18:04;10.30;99.90
34360;DHT22;20624;55.870;26.506;2022-09-24T08:20:36;10.30;99.90
34360;DHT22;20624;55.870;26.506;2022-09-24T08:23:06;10.30;99.90
34360;DHT22;20624;55.870;26.506;2022-09-24T08:25:36;10.30;99.90
34360;DHT22;20624;55.870;26.506;2022-09-24T08:28:04;10.40;99.90
34360;DHT22;20624;55.870;26.506;2022-09-24T08:30:37;10.50;99.90
34360;DHT22;20624;55.870;26.506;2022-09-24T08:33:09;10.40;99.90
34360;DHT22;20624;55.870;26.506;2022-09-24T08:35:40;10.40;99.90
34360;DHT22;20624;55.870;26.506;2022-09-24T08:38:11;10.60;99.90
34360;DHT22;20624;55.870;26.506;2022-09-24T08:40:45;10.80;99.90
34360;DHT22;20624;55.870;26.506;2022-09-24T08:46:37;12.00;99.90
34360;DHT22;20624;55.870;26.506;2022-09-24T08:49:32;11.00;99.90
34360;DHT22;20624;55.870;26.506;2022-09-24T08:55:06;11.20;99.90
34360;DHT22;20624;55.870;26.506;2022-09-24T09:00:13;11.80;99.90
34360;DHT22;20624;55.870;26.506;2022-09-24T09:03:00;11.80;99.90
34360;DHT22;20624;55.870;26.506;2022-09-24T09:05:43;11.90;99.90
34360;DHT22;20624;55.870;26.506;2022-09-24T09:08:41;11.90;99.90
34360;DHT22;20624;55.870;26.506;2022-09-24T09:11:31;11.80;99.90
34360;DHT22;20624;55.870;26.506;2022-09-24T09:14:03;11.70;99.90
34360;DHT22;20624;55.870;26.506;2022-09-24T09:16:51;11.80;99.90
34360;DHT22;20624;55.870;26.506;2022-09-24T09:19:23;12.10;99.90
34360;DHT22;20624;55.870;26.506;2022-09-24T09:25:02;12.10;99.90
34360;DHT22;20624;55.870;26.506;2022-09-24T09:27:30;12.00;99.90
34360;DHT22;20624;55.870;26.506;2022-09-24T09:30:03;12.10;99.90
34360;DHT22;20624;55.870;26.506;2022-09-24T09:32:47;12.10;99.90
34360;DHT22;20624;55.870;26.506;2022-09-24T09:35:38;11.90;99.90
34360;DHT22;20624;55.870;26.506;2022-09-24T09:38:55;11.90;99.90
34360;DHT22;20624;55.870;26.506;2022-09-24T09:44:25;11.70;99.90
34360;DHT22;20624;55.870;26.506;2022-09-24T09:49:47;11.70;99.90
34360;DHT22;20624;55.870;26.506;2022-09-24T09:52:22;11.50;99.90
34360;DHT22;20624;55.870;26.506;2022-09-24T09:54:50;11.40;99.90
34360;DHT22;20624;55.870;26.506;2022-09-24T09:57:21;12.00;99.90
34360;DHT22;20624;55.870;26.506;2022-09-24T09:59:52;11.60;99.90
34360;DHT22;20624;55.870;26.506;2022-09-24T10:02:24;11.60;99.90
34360;DHT22;20624;55.870;26.506;2022-09-24T10:05:04;11.60;99.90
34360;DHT22;20624;55.870;26.506;2022-09-24T10:07:43;11.70;99.90
34360;DHT22;20624;55.870;26.506;2022-09-24T10:10:23;11.70;99.90
34360;DHT22;20624;55.870;26.506;2022-09-24T10:13:08;11.70;99.90
34360;DHT22;20624;55.870;26.506;2022-09-24T10:15:56;11.70;99.90
34360;DHT22;20624;55.870;26.506;2022-09-24T10:21:01;11.70;99.90
34360;DHT22;20624;55.870;26.506;2022-09-24T10:23:35;11.80;99.90
34360;DHT22;20624;55.870;26.506;2022-09-24T10:26:04;11.80;99.90
34360;DHT22;20624;55.870;26.506;2022-09-24T10:28:34;11.80;99.90
34360;DHT22;20624;55.870;26.506;2022-09-24T10:31:25;11.70;99.90
34360;DHT22;20624;55.870;26.506;2022-09-24T10:33:56;11.70;99.90
34360;DHT22;20624;55.870;26.506;2022-09-24T10:36:27;11.70;99.90
34360;DHT22;20624;55.870;26.506;2022-09-24T10:41:34;11.90;99.90
34360;DHT22;20624;55.870;26.506;2022-09-24T10:44:08;11.90;99.90
34360;DHT22;20624;55.870;26.506;2022-09-24T11:00:47;12.30;99.90
34360;DHT22;20624;55.870;26.506;2022-09-24T11:03:42;12.80;99.90
34360;DHT22;20624;55.870;26.506;2022-09-24T11:09:31;12.50;99.50
34360;DHT22;20624;55.870;26.506;2022-09-24T11:12:41;12.40;98.40
34360;DHT22;20624;55.870;26.506;2022-09-24T11:26:58;13.20;93.20
34360;DHT22;20624;55.870;26.506;2022-09-24T11:49:39;17.60;42.20
34360;DHT22;20624;55.870;26.506;2022-09-24T11:52:35;18.20;41.30
34360;DHT22;20624;55.870;26.506;2022-09-24T11:55:18;18.90;43.50
34360;DHT22;20624;55.870;26.506;2022-09-24T12:03:27;19.50;29.10
34360;DHT22;20624;55.870;26.506;2022-09-24T12:06:31;18.90;27.90
34360;DHT22;20624;55.870;26.506;2022-09-24T12:09:13;19.40;28.20
34360;DHT22;20624;55.870;26.506;2022-09-24T12:11:49;19.20;27.50
34360;DHT22;20624;55.870;26.506;2022-09-24T12:14:25;19.30;26.80
34360;DHT22;20624;55.870;26.506;2022-09-24T12:17:03;18.90;26.30
34360;DHT22;20624;55.870;26.506;2022-09-24T12:19:38;18.40;28.00
34360;DHT22;20624;55.870;26.506;2022-09-24T12:22:08;17.50;28.70
34360;DHT22;20624;55.870;26.506;2022-09-24T12:24:50;17.40;29.40
34360;DHT22;20624;55.870;26.506;2022-09-24T12:27:35;17.00;31.40
34360;DHT22;20624;55.870;26.506;2022-09-24T12:33:26;16.20;32.30
34360;DHT22;20624;55.870;26.506;2022-09-24T12:36:00;16.10;35.40
34360;DHT22;20624;55.870;26.506;2022-09-24T12:41:29;16.20;34.80
34360;DHT22;20624;55.870;26.506;2022-09-24T12:44:17;16.20;33.20
34360;DHT22;20624;55.870;26.506;2022-09-24T12:46:53;16.10;33.40
34360;DHT22;20624;55.870;26.506;2022-09-24T12:49:29;15.80;33.20
34360;DHT22;20624;55.870;26.506;2022-09-24T12:52:00;15.60;37.10
34360;DHT22;20624;55.870;26.506;2022-09-24T12:57:10;15.20;36.10
34360;DHT22;20624;55.870;26.506;2022-09-24T12:59:57;15.10;35.80
34360;DHT22;20624;55.870;26.506;2022-09-24T13:02:46;14.90;39.00
34360;DHT22;20624;55.870;26.506;2022-09-24T13:07:59;15.10;36.90
34360;DHT22;20624;55.870;26.506;2022-09-24T13:10:31;15.00;36.30
34360;DHT22;20624;55.870;26.506;2022-09-24T13:13:02;14.90;35.70
34360;DHT22;20624;55.870;26.506;2022-09-24T13:18:20;14.80;38.90
34360;DHT22;20624;55.870;26.506;2022-09-24T13:21:19;14.60;42.30
34360;DHT22;20624;55.870;26.506;2022-09-24T13:23:50;15.90;44.50
34360;DHT22;20624;55.870;26.506;2022-09-24T13:29:20;14.20;45.80
34360;DHT22;20624;55.870;26.506;2022-09-24T13:32:00;14.00;47.40
34360;DHT22;20624;55.870;26.506;2022-09-24T13:34:29;13.80;49.60
34360;DHT22;20624;55.870;26.506;2022-09-24T13:39:57;13.70;53.20
34360;DHT22;20624;55.870;26.506;2022-09-24T13:45:00;13.50;54.50
34360;DHT22;20624;55.870;26.506;2022-09-24T13:47:54;13.40;56.10
34360;DHT22;20624;55.870;26.506;2022-09-24T13:50:29;13.30;59.40
34360;DHT22;20624;55.870;26.506;2022-09-24T13:58:29;13.40;59.20
34360;DHT22;20624;55.870;26.506;2022-09-24T14:01:02;13.50;58.60
34360;DHT22;20624;55.870;26.506;2022-09-24T14:03:38;13.50;59.20
34360;DHT22;20624;55.870;26.506;2022-09-24T14:06:14;13.80;59.10
34360;DHT22;20624;55.870;26.506;2022-09-24T14:08:46;14.20;53.80
34360;DHT22;20624;55.870;26.506;2022-09-24T14:11:21;14.20;54.00
34360;DHT22;20624;55.870;26.506;2022-09-24T14:13:55;14.20;54.50
34360;DHT22;20624;55.870;26.506;2022-09-24T14:16:25;14.10;49.80
34360;DHT22;20624;55.870;26.506;2022-09-24T14:19:04;13.90;52.30
34360;DHT22;20624;55.870;26.506;2022-09-24T14:24:31;13.60;54.80
34360;DHT22;20624;55.870;26.506;2022-09-24T14:27:07;13.50;58.30
34360;DHT22;20624;55.870;26.506;2022-09-24T14:29:53;13.40;57.90
34360;DHT22;20624;55.870;26.506;2022-09-24T14:34:53;13.30;61.90
34360;DHT22;20624;55.870;26.506;2022-09-24T14:37:28;13.40;62.70
34360;DHT22;20624;55.870;26.506;2022-09-24T14:40:04;13.30;60.70
34360;DHT22;20624;55.870;26.506;2022-09-24T14:42:40;13.30;62.30
34360;DHT22;20624;55.870;26.506;2022-09-24T14:45:20;13.30;61.90
34360;DHT22;20624;55.870;26.506;2022-09-24T14:48:02;13.20;61.50
34360;DHT22;20624;55.870;26.506;2022-09-24T14:53:01;13.20;63.40
34360;DHT22;20624;55.870;26.506;2022-09-24T14:55:40;13.40;62.90
34360;DHT22;20624;55.870;26.506;2022-09-24T14:58:30;13.50;60.90
34360;DHT22;20624;55.870;26.506;2022-09-24T15:01:11;13.60;59.10
34360;DHT22;20624;55.870;26.506;2022-09-24T15:06:26;13.70;55.20
34360;DHT22;20624;55.870;26.506;2022-09-24T15:11:49;13.80;56.90
34360;DHT22;20624;55.870;26.506;2022-09-24T15:14:22;13.70;53.80
34360;DHT22;20624;55.870;26.506;2022-09-24T15:16:54;13.40;53.70
34360;DHT22;20624;55.870;26.506;2022-09-24T15:19:24;13.40;54.40
34360;DHT22;20624;55.870;26.506;2022-09-24T15:21:55;13.30;55.80
34360;DHT22;20624;55.870;26.506;2022-09-24T15:24:24;13.20;57.60
34360;DHT22;20624;55.870;26.506;2022-09-24T15:27:28;12.90;58.70
34360;DHT22;20624;55.870;26.506;2022-09-24T15:32:30;12.70;60.70
34360;DHT22;20624;55.870;26.506;2022-09-24T15:34:58;12.60;61.70
34360;DHT22;20624;55.870;26.506;2022-09-24T15:37:28;12.60;63.30
34360;DHT22;20624;55.870;26.506;2022-09-24T15:39:58;12.50;66.30
34360;DHT22;20624;55.870;26.506;2022-09-24T15:42:26;12.40;63.90
34360;DHT22;20624;55.870;26.506;2022-09-24T15:44:54;12.30;63.50
34360;DHT22;20624;55.870;26.506;2022-09-24T15:47:24;12.20;66.80
34360;DHT22;20624;55.870;26.506;2022-09-24T15:49:52;12.20;68.70
34360;DHT22;20624;55.870;26.506;2022-09-24T15:52:24;12.00;70.40
34360;DHT22;20624;55.870;26.506;2022-09-24T15:54:54;12.10;71.00
34360;DHT22;20624;55.870;26.506;2022-09-24T15:57:23;11.90;71.60
34360;DHT22;20624;55.870;26.506;2022-09-24T15:59:50;11.80;74.70
34360;DHT22;20624;55.870;26.506;2022-09-24T16:02:24;11.80;75.20
34360;DHT22;20624;55.870;26.506;2022-09-24T16:04:53;11.70;73.50
34360;DHT22;20624;55.870;26.506;2022-09-24T16:07:25;11.80;73.90
34360;DHT22;20624;55.870;26.506;2022-09-24T16:09:53;11.60;73.80
34360;DHT22;20624;55.870;26.506;2022-09-24T16:12:20;11.50;74.50
34360;DHT22;20624;55.870;26.506;2022-09-24T16:14:49;11.40;76.20
34360;DHT22;20624;55.870;26.506;2022-09-24T16:17:17;11.40;75.60
34360;DHT22;20624;55.870;26.506;2022-09-24T16:19:45;11.30;77.20
34360;DHT22;20624;55.870;26.506;2022-09-24T16:22:14;11.20;77.60
34360;DHT22;20624;55.870;26.506;2022-09-24T16:24:46;11.10;78.70
34360;DHT22;20624;55.870;26.506;2022-09-24T16:27:14;11.00;79.60
34360;DHT22;20624;55.870;26.506;2022-09-24T16:29:42;11.00;83.70
34360;DHT22;20624;55.870;26.506;2022-09-24T16:32:10;10.80;83.60
34360;DHT22;20624;55.870;26.506;2022-09-24T16:37:08;10.60;89.10
34360;DHT22;20624;55.870;26.506;2022-09-24T16:39:36;10.50;90.90
34360;DHT22;20624;55.870;26.506;2022-09-24T16:42:03;10.30;92.40
34360;DHT22;20624;55.870;26.506;2022-09-24T16:44:31;10.30;94.30
34360;DHT22;20624;55.870;26.506;2022-09-24T16:46:58;10.20;96.00
34360;DHT22;20624;55.870;26.506;2022-09-24T16:49:26;10.00;97.10
34360;DHT22;20624;55.870;26.506;2022-09-24T16:51:54;9.90;98.80
34360;DHT22;20624;55.870;26.506;2022-09-24T16:54:21;10.70;99.90
34360;DHT22;20624;55.870;26.506;2022-09-24T16:56:53;9.70;99.90
34360;DHT22;20624;55.870;26.506;2022-09-24T16:59:22;9.60;99.90
34360;DHT22;20624;55.870;26.506;2022-09-24T17:01:49;9.50;99.90
34360;DHT22;20624;55.870;26.506;2022-09-24T17:04:17;9.40;99.90
34360;DHT22;20624;55.870;26.506;2022-09-24T17:06:45;9.30;99.90
34360;DHT22;20624;55.870;26.506;2022-09-24T17:09:13;9.20;99.90
34360;DHT22;20624;55.870;26.506;2022-09-24T17:12:03;9.10;99.90
34360;DHT22;20624;55.870;26.506;2022-09-24T17:14:31;9.00;99.90
34360;DHT22;20624;55.870;26.506;2022-09-24T17:16:59;8.90;99.90
34360;DHT22;20624;55.870;26.506;2022-09-24T17:19:28;8.80;99.90
34360;DHT22;20624;55.870;26.506;2022-09-24T17:21:56;8.70;99.90
34360;DHT22;20624;55.870;26.506;2022-09-24T17:24:25;8.50;99.90
34360;DHT22;20624;55.870;26.506;2022-09-24T17:26:52;8.50;99.90
34360;DHT22;20624;55.870;26.506;2022-09-24T17:29:21;8.40;99.90
34360;DHT22;20624;55.870;26.506;2022-09-24T17:31:56;8.70;99.90
34360;DHT22;20624;55.870;26.506;2022-09-24T17:34:24;8.30;99.90
34360;DHT22;20624;55.870;26.506;2022-09-24T17:36:51;8.30;99.90
34360;DHT22;20624;55.870;26.506;2022-09-24T17:39:19;8.20;99.90
34360;DHT22;20624;55.870;26.506;2022-09-24T17:41:47;8.30;99.90
34360;DHT22;20624;55.870;26.506;2022-09-24T17:44:14;8.20;99.90
34360;DHT22;20624;55.870;26.506;2022-09-24T17:46:43;8.20;99.90
34360;DHT22;20624;55.870;26.506;2022-09-24T17:49:11;8.10;99.90
34360;DHT22;20624;55.870;26.506;2022-09-24T17:51:39;8.10;99.90
34360;DHT22;20624;55.870;26.506;2022-09-24T17:54:12;8.20;99.90
34360;DHT22;20624;55.870;26.506;2022-09-24T17:56:41;8.20;99.90
34360;DHT22;20624;55.870;26.506;2022-09-24T17:59:10;8.20;99.90
34360;DHT22;20624;55.870;26.506;2022-09-24T18:04:19;8.20;99.90
34360;DHT22;20624;55.870;26.506;2022-09-24T18:06:48;8.10;99.90
34360;DHT22;20624;55.870;26.506;2022-09-24T18:09:16;8.10;99.90
34360;DHT22;20624;55.870;26.506;2022-09-24T18:11:47;8.10;99.90
34360;DHT22;20624;55.870;26.506;2022-09-24T18:14:17;8.10;99.90
34360;DHT22;20624;55.870;26.506;2022-09-24T18:16:45;8.10;99.90
34360;DHT22;20624;55.870;26.506;2022-09-24T18:19:15;8.00;99.90
34360;DHT22;20624;55.870;26.506;2022-09-24T18:21:45;8.00;99.90
34360;DHT22;20624;55.870;26.506;2022-09-24T18:24:15;8.00;99.90
34360;DHT22;20624;55.870;26.506;2022-09-24T18:29:17;7.80;99.90
34360;DHT22;20624;55.870;26.506;2022-09-24T18:31:45;7.90;99.90
34360;DHT22;20624;55.870;26.506;2022-09-24T18:34:14;7.90;99.90
34360;DHT22;20624;55.870;26.506;2022-09-24T18:36:43;7.90;99.90
34360;DHT22;20624;55.870;26.506;2022-09-24T18:39:12;8.10;99.90
34360;DHT22;20624;55.870;26.506;2022-09-24T18:41:43;7.90;99.90
34360;DHT22;20624;55.870;26.506;2022-09-24T18:44:10;7.80;99.90
34360;DHT22;20624;55.870;26.506;2022-09-24T18:46:38;7.80;99.90
34360;DHT22;20624;55.870;26.506;2022-09-24T18:49:08;7.80;99.90
34360;DHT22;20624;55.870;26.506;2022-09-24T18:51:36;7.70;99.90
34360;DHT22;20624;55.870;26.506;2022-09-24T18:54:07;7.70;99.90
34360;DHT22;20624;55.870;26.506;2022-09-24T18:56:34;7.70;99.90
34360;DHT22;20624;55.870;26.506;2022-09-24T18:59:04;7.50;99.90
34360;DHT22;20624;55.870;26.506;2022-09-24T19:01:36;7.50;99.90
34360;DHT22;20624;55.870;26.506;2022-09-24T19:04:04;7.50;99.90
34360;DHT22;20624;55.870;26.506;2022-09-24T19:06:33;7.40;99.90
34360;DHT22;20624;55.870;26.506;2022-09-24T19:09:01;7.30;99.90
34360;DHT22;20624;55.870;26.506;2022-09-24T19:11:31;7.20;99.90
34360;DHT22;20624;55.870;26.506;2022-09-24T19:14:00;7.20;99.90